Time;durP1;ratioP1;P1;durP2;ratioP2;P2;SDS_P1;SDS_P2;PMS_P1;PMS_P2;Temp;Humidity;BMP_temperature;BMP_pressure;BME280_temperature;BME280_humidity;BME280_pressure;Samples;Min_cycle;Max_cycle;Signal;HPM_P1;HPM_P2
2022/08/06 00:01:54;;;;;;;4.43;0.98;;;11.60;99.90;;;;;;7330251;32;20242;-61
2022/08/06 00:05:55;;;;;;;3.87;1.75;;;11.50;99.90;;;;;;7332436;32;20218;-63
2022/08/06 00:10:00;;;;;;;3.78;1.10;;;11.40;99.90;;;;;;7327621;32;20126;-63
2022/08/06 00:14:03;;;;;;;3.47;1.00;;;11.30;99.90;;;;;;7334845;32;20121;-62
2022/08/06 00:18:25;;;;;;;6.25;1.20;;;11.30;99.90;;;;;;7335126;32;20197;-61
2022/08/06 00:22:42;;;;;;;5.80;1.12;;;11.20;99.90;;;;;;7335408;32;20507;-63
2022/08/06 00:26:44;;;;;;;8.90;2.45;;;11.10;99.90;;;;;;7333821;32;20523;-62
2022/08/06 00:31:07;;;;;;;6.60;1.55;;;11.00;99.90;;;;;;7330617;32;20115;-61
2022/08/06 00:35:12;;;;;;;7.12;1.00;;;11.00;99.90;;;;;;7329667;32;20218;-60
2022/08/06 00:39:16;;;;;;;1.73;1.00;;;10.90;99.90;;;;;;7333400;32;20214;-63
2022/08/06 00:43:18;;;;;;;1.67;1.02;;;10.80;99.90;;;;;;7327053;32;20883;-61
2022/08/06 00:47:20;;;;;;;4.45;1.10;;;10.80;99.90;;;;;;7336208;32;20230;-63
2022/08/06 00:51:42;;;;;;;4.80;1.15;;;10.70;99.90;;;;;;7332337;32;20550;-61
2022/08/06 00:55:53;;;;;;;4.40;1.12;;;10.70;99.90;;;;;;7328344;32;20119;-62
2022/08/06 01:00:01;;;;;;;4.03;0.88;;;10.70;99.90;;;;;;7330807;32;20174;-61
2022/08/06 01:04:23;;;;;;;3.35;1.20;;;10.60;99.90;;;;;;7335207;32;20145;-63
2022/08/06 01:08:28;;;;;;;4.15;1.10;;;10.50;99.90;;;;;;7329569;32;20154;-63
2022/08/06 01:12:30;;;;;;;5.37;1.10;;;10.40;99.90;;;;;;7329882;32;20197;-61
2022/08/06 01:16:45;;;;;;;7.53;1.33;;;10.50;99.90;;;;;;7327389;32;20306;-61
2022/08/06 01:21:21;;;;;;;3.75;1.23;;;10.30;99.90;;;;;;7333451;32;20115;-61
2022/08/06 01:26:20;;;;;;;5.43;1.33;;;10.30;99.90;;;;;;7323779;32;20115;-60
2022/08/06 01:30:27;;;;;;;1.85;1.20;;;10.20;99.90;;;;;;7325812;32;20202;-60
2022/08/06 01:34:40;;;;;;;3.83;1.27;;;10.20;99.90;;;;;;7329912;32;20243;-61
2022/08/06 01:38:46;;;;;;;3.70;1.48;;;10.20;99.90;;;;;;7330022;32;20187;-61
2022/08/06 01:43:05;;;;;;;4.07;1.30;;;10.10;99.90;;;;;;7320761;32;22002;-60
2022/08/06 01:47:30;;;;;;;4.22;1.30;;;10.10;99.90;;;;;;7327010;32;20198;-60
2022/08/06 01:51:54;;;;;;;3.60;1.20;;;10.10;99.90;;;;;;7332074;32;20306;-63
2022/08/06 01:56:18;;;;;;;11.57;1.50;;;10.00;99.90;;;;;;7326876;32;20734;-62
2022/08/06 02:00:36;;;;;;;3.62;1.15;;;9.90;99.90;;;;;;7325218;32;20577;-62
2022/08/06 02:04:40;;;;;;;4.82;1.42;;;9.90;99.90;;;;;;7333454;32;20806;-62
2022/08/06 02:08:45;;;;;;;3.30;1.05;;;9.90;99.90;;;;;;7323752;32;20549;-62
2022/08/06 02:12:50;;;;;;;4.22;1.50;;;9.80;99.90;;;;;;7338192;32;20107;-62
2022/08/06 02:16:55;;;;;;;3.47;1.05;;;9.80;99.90;;;;;;7341706;32;20853;-61
2022/08/06 02:21:00;;;;;;;4.37;1.27;;;9.70;99.90;;;;;;7342836;32;20147;-60
2022/08/06 02:25:20;;;;;;;2.15;1.00;;;9.60;99.90;;;;;;7337139;32;20135;-61
2022/08/06 02:29:36;;;;;;;3.90;1.20;;;9.60;99.90;;;;;;7330602;32;20205;-60
2022/08/06 02:33:58;;;;;;;4.37;1.10;;;9.60;99.90;;;;;;7331576;32;20104;-61
2022/08/06 02:38:25;;;;;;;7.12;1.20;;;9.60;99.90;;;;;;7337412;32;20645;-61
2022/08/06 02:42:42;;;;;;;3.70;1.08;;;9.50;99.90;;;;;;7339012;32;20192;-61
2022/08/06 02:47:04;;;;;;;2.60;1.83;;;9.50;99.90;;;;;;7336241;32;20139;-60
2022/08/06 02:51:25;;;;;;;3.75;1.00;;;9.50;99.90;;;;;;7342305;32;20177;-60
2022/08/06 02:55:49;;;;;;;3.67;1.20;;;9.50;99.90;;;;;;7339392;32;20146;-60
2022/08/06 02:59:57;;;;;;;3.15;1.37;;;9.40;99.90;;;;;;7340784;32;20116;-61
2022/08/06 03:04:01;;;;;;;4.12;1.30;;;9.30;99.90;;;;;;7340517;32;20175;-60
2022/08/06 03:08:06;;;;;;;1.92;1.30;;;9.20;99.90;;;;;;7339078;32;20155;-60
2022/08/06 03:12:12;;;;;;;4.50;1.10;;;9.30;99.90;;;;;;7334888;32;20118;-61
2022/08/06 03:16:35;;;;;;;5.32;1.20;;;9.20;99.90;;;;;;7336206;32;20211;-60
2022/08/06 03:20:40;;;;;;;4.25;1.40;;;9.20;99.90;;;;;;7335439;32;20119;-60
2022/08/06 03:24:43;;;;;;;4.95;1.20;;;9.10;99.90;;;;;;7342682;32;20252;-61
2022/08/06 03:28:49;;;;;;;3.15;1.12;;;9.10;99.90;;;;;;7337681;32;20129;-60
2022/08/06 03:32:52;;;;;;;5.90;1.45;;;9.10;99.90;;;;;;7340581;32;20129;-61
2022/08/06 03:36:55;;;;;;;9.30;1.40;;;9.10;99.90;;;;;;7335308;32;20571;-61
2022/08/06 03:40:59;;;;;;;2.90;1.62;;;9.10;99.90;;;;;;7341737;32;20202;-60
2022/08/06 03:45:02;;;;;;;3.30;1.10;;;9.10;99.90;;;;;;7336514;32;20528;-61
2022/08/06 03:49:12;;;;;;;4.30;1.17;;;9.00;99.90;;;;;;7340429;32;20115;-61
2022/08/06 03:53:20;;;;;;;3.12;1.12;;;8.90;99.90;;;;;;7334828;32;20130;-61
2022/08/06 03:57:31;;;;;;;3.05;1.20;;;8.90;99.90;;;;;;7339881;32;20289;-61
2022/08/06 04:01:49;;;;;;;3.83;1.33;;;8.90;99.90;;;;;;7337489;32;20123;-61
2022/08/06 04:05:54;;;;;;;2.35;1.15;;;9.00;99.90;;;;;;7341766;32;20618;-61
2022/08/06 04:09:57;;;;;;;9.18;1.50;;;8.90;99.90;;;;;;7340608;32;20129;-61
2022/08/06 04:14:03;;;;;;;2.83;1.35;;;8.90;99.90;;;;;;7344265;32;20251;-60
2022/08/06 04:18:18;;;;;;;2.35;1.30;;;8.90;99.90;;;;;;7342342;32;20249;-61
2022/08/06 04:22:21;;;;;;;4.55;1.27;;;9.00;99.90;;;;;;7346258;32;20218;-61
2022/08/06 04:26:45;;;;;;;5.60;1.50;;;8.90;99.90;;;;;;7337705;32;20191;-61
2022/08/06 04:30:48;;;;;;;7.15;1.25;;;8.90;99.90;;;;;;7335563;32;20880;-62
2022/08/06 04:34:52;;;;;;;2.75;1.33;;;8.80;99.90;;;;;;7338527;32;20551;-62
2022/08/06 04:39:16;;;;;;;3.72;1.37;;;8.80;99.90;;;;;;7335475;32;20095;-64
2022/08/06 04:43:26;;;;;;;3.70;1.30;;;8.80;99.90;;;;;;7327776;32;20111;-64
2022/08/06 04:47:41;;;;;;;3.80;1.42;;;8.90;99.90;;;;;;7339010;32;20217;-62
2022/08/06 04:51:48;;;;;;;6.05;1.42;;;9.10;99.90;;;;;;7343248;32;20191;-62
2022/08/06 04:56:10;;;;;;;6.70;1.30;;;9.40;99.90;;;;;;7342924;32;20139;-62
2022/08/06 05:00:18;;;;;;;3.28;1.40;;;9.80;99.90;;;;;;7339624;32;20196;-65
2022/08/06 05:04:41;;;;;;;4.32;1.00;;;10.40;99.90;;;;;;7339689;32;20104;-62
2022/08/06 05:08:51;;;;;;;4.12;1.02;;;10.90;99.90;;;;;;7342075;32;20206;-61
2022/08/06 05:12:56;;;;;;;;;;;11.20;99.90;;;;;;7338100;32;20122;-62
2022/08/06 05:17:01;;;;;;;5.37;1.00;;;11.50;99.90;;;;;;7340798;32;20026;-64
2022/08/06 05:21:05;;;;;;;2.72;1.10;;;11.40;99.90;;;;;;7336605;32;20861;-66
2022/08/06 05:25:08;;;;;;;2.97;1.30;;;11.30;99.90;;;;;;7335331;32;20560;-65
2022/08/06 05:29:23;;;;;;;5.00;1.35;;;11.10;99.90;;;;;;7332104;32;20153;-64
2022/08/06 05:33:31;;;;;;;2.80;1.27;;;10.90;99.90;;;;;;7341125;32;20270;-63
2022/08/06 05:37:40;;;;;;;5.12;1.20;;;11.00;99.90;;;;;;7338377;32;20171;-62
2022/08/06 05:42:01;;;;;;;4.40;1.67;;;10.90;99.90;;;;;;7340997;32;20541;-63
2022/08/06 05:46:08;;;;;;;5.30;2.00;;;11.00;99.90;;;;;;7337331;32;20167;-64
2022/08/06 05:50:14;;;;;;;4.12;1.83;;;11.10;99.90;;;;;;7340203;32;20170;-63
2022/08/06 05:54:29;;;;;;;4.40;1.90;;;11.00;99.90;;;;;;7347203;32;22566;-67
2022/08/06 05:58:44;;;;;;;3.85;2.03;;;11.10;99.90;;;;;;7336882;32;20268;-65
2022/08/06 06:02:58;;;;;;;7.60;2.47;;;11.20;99.90;;;;;;7336276;32;20337;-62
2022/08/06 06:07:03;;;;;;;6.82;3.72;;;11.30;99.90;;;;;;7341843;32;20186;-65
2022/08/06 06:11:10;;;;;;;5.50;3.62;;;11.40;99.90;;;;;;7340689;32;20171;-67
2022/08/06 06:15:14;;;;;;;6.62;4.00;;;11.50;99.90;;;;;;7338268;32;20124;-61
2022/08/06 06:19:49;;;;;;;8.23;3.58;;;11.70;99.90;;;;;;7340416;32;20219;-62
2022/08/06 06:24:13;;;;;;;8.70;3.83;;;11.90;99.90;;;;;;7341403;32;20123;-67
2022/08/06 06:29:04;;;;;;;8.32;4.32;;;12.10;99.90;;;;;;7337667;32;20208;-65
2022/08/06 06:33:38;;;;;;;8.52;3.83;;;12.40;99.90;;;;;;7339488;32;20115;-59
2022/08/06 06:38:19;;;;;;;9.38;3.35;;;12.50;99.90;;;;;;7345526;32;20126;-59
2022/08/06 06:42:36;;;;;;;5.90;3.47;;;12.80;99.90;;;;;;7340232;32;20224;-60
2022/08/06 06:47:01;;;;;;;7.55;2.62;;;13.10;99.90;;;;;;7338097;32;21115;-61
2022/08/06 06:51:29;;;;;;;4.90;2.25;;;14.10;99.90;;;;;;7337670;32;20663;-60
2022/08/06 06:55:56;;;;;;;5.37;2.10;;;14.60;99.90;;;;;;7345008;32;20512;-64
2022/08/06 07:00:06;;;;;;;5.50;1.80;;;15.20;99.90;;;;;;7339548;32;20190;-63
2022/08/06 07:04:29;;;;;;;6.20;1.65;;;15.40;99.90;;;;;;7341365;32;20870;-64
2022/08/06 07:08:35;;;;;;;4.32;1.60;;;15.80;99.90;;;;;;7333354;32;21244;-64
2022/08/06 07:12:45;;;;;;;5.60;1.52;;;15.80;99.90;;;;;;7344537;32;20135;-65
2022/08/06 07:16:55;;;;;;;4.62;1.25;;;15.80;99.90;;;;;;7339208;32;20111;-63
2022/08/06 07:20:57;;;;;;;5.05;1.25;;;15.80;99.90;;;;;;7341765;32;20187;-64
2022/08/06 07:25:01;;;;;;;4.72;0.68;;;16.00;99.90;;;;;;7344287;32;20135;-63
2022/08/06 07:29:09;;;;;;;;;;;15.90;99.90;;;;;;7341217;32;20126;-65
2022/08/06 07:33:13;;;;;;;5.53;0.80;;;16.00;99.90;;;;;;7338958;32;20437;-62
2022/08/06 07:37:21;;;;;;;3.92;0.62;;;16.10;99.90;;;;;;7340611;32;20159;-64
2022/08/06 07:41:23;;;;;;;3.37;0.63;;;17.10;99.90;;;;;;7337432;32;20170;-65
2022/08/06 07:45:48;;;;;;;3.78;0.60;;;17.00;99.90;;;;;;7335529;32;20689;-68
2022/08/06 07:49:58;;;;;;;2.70;0.77;;;16.90;99.90;;;;;;7336898;32;20957;-63
2022/08/06 07:54:04;;;;;;;1.77;0.50;;;16.80;99.90;;;;;;7337873;32;20157;-61
2022/08/06 07:58:12;;;;;;;2.92;0.60;;;16.80;99.90;;;;;;7337106;32;20111;-69
2022/08/06 08:02:17;;;;;;;2.65;0.50;;;16.80;99.90;;;;;;7329040;32;20108;-62
2022/08/06 08:06:31;;;;;;;4.87;0.90;;;16.80;99.90;;;;;;7339042;32;20103;-63
2022/08/06 08:10:45;;;;;;;2.65;0.65;;;16.90;99.90;;;;;;7339945;32;20149;-64
2022/08/06 08:14:50;;;;;;;3.22;0.40;;;16.80;99.90;;;;;;7340647;32;20150;-62
2022/08/06 08:18:52;;;;;;;1.70;0.35;;;17.00;99.90;;;;;;7340013;32;20237;-63
2022/08/06 08:22:53;;;;;;;1.75;0.50;;;16.90;99.90;;;;;;7341677;32;20641;-62
2022/08/06 08:26:55;;;;;;;2.65;0.77;;;17.00;99.90;;;;;;7338638;32;20119;-62
2022/08/06 08:31:17;;;;;;;1.65;0.30;;;17.40;99.90;;;;;;7335914;32;20107;-63
2022/08/06 08:35:27;;;;;;;1.17;0.20;;;17.40;99.90;;;;;;7341692;32;20149;-64
2022/08/06 08:39:37;;;;;;;2.92;0.40;;;17.70;99.90;;;;;;7338037;32;20290;-66
2022/08/06 08:43:48;;;;;;;6.10;0.50;;;17.90;99.90;;;;;;7339983;32;20138;-66
2022/08/06 08:48:04;;;;;;;2.05;0.37;;;18.20;99.90;;;;;;7337157;32;20111;-66
2022/08/06 08:52:12;;;;;;;1.73;0.85;;;18.80;99.90;;;;;;7338092;32;20780;-65
2022/08/06 08:56:18;;;;;;;2.17;0.35;;;19.10;99.90;;;;;;7336466;32;20111;-64
2022/08/06 09:00:41;;;;;;;1.67;0.30;;;19.30;99.90;;;;;;7337111;32;20160;-64
2022/08/06 09:04:52;;;;;;;2.83;0.40;;;19.80;99.90;;;;;;7335603;32;20617;-63
2022/08/06 09:08:54;;;;;;;1.98;0.37;;;20.20;99.90;;;;;;7336248;32;20517;-64
2022/08/06 09:13:04;;;;;;;1.30;0.32;;;20.00;99.90;;;;;;7340974;32;20115;-64
2022/08/06 09:17:28;;;;;;;1.75;0.30;;;20.40;99.90;;;;;;7343697;32;20220;-63
2022/08/06 09:21:49;;;;;;;1.15;0.32;;;20.50;99.90;;;;;;7343109;32;20174;-62
2022/08/06 09:25:52;;;;;;;1.05;0.30;;;21.10;99.90;;;;;;7343066;32;20178;-63
2022/08/06 09:30:02;;;;;;;1.45;0.30;;;21.10;99.90;;;;;;7339835;32;20357;-63
2022/08/06 09:34:32;;;;;;;3.12;0.30;;;20.80;99.90;;;;;;7334684;32;20107;-63
2022/08/06 09:39:00;;;;;;;2.08;0.52;;;20.00;99.90;;;;;;7340230;32;20244;-64
2022/08/06 09:43:02;;;;;;;3.25;0.50;;;20.50;99.90;;;;;;7343943;32;20256;-64
2022/08/06 09:47:06;;;;;;;1.83;0.30;;;20.30;99.90;;;;;;7346173;32;20138;-63
2022/08/06 09:51:23;;;;;;;2.25;0.40;;;21.00;99.90;;;;;;7327564;32;20246;-63
2022/08/06 09:55:45;;;;;;;1.98;0.40;;;21.50;99.90;;;;;;7344409;32;20104;-62
2022/08/06 09:59:48;;;;;;;1.80;0.40;;;21.80;99.90;;;;;;7339665;32;20376;-67
2022/08/06 10:03:54;;;;;;;3.45;0.50;;;22.20;99.90;;;;;;7338930;32;20131;-65
2022/08/06 10:08:16;;;;;;;1.75;0.50;;;21.90;97.70;;;;;;7344552;32;20107;-62
2022/08/06 10:12:24;;;;;;;3.70;0.60;;;21.40;99.90;;;;;;7340671;32;20112;-63
2022/08/06 10:16:28;;;;;;;4.65;0.40;;;21.40;99.90;;;;;;7342207;32;20131;-62
2022/08/06 10:20:30;;;;;;;3.65;0.50;;;22.00;99.30;;;;;;7336695;32;20112;-63
2022/08/06 10:24:44;;;;;;;1.73;0.33;;;22.30;98.80;;;;;;7342072;32;20314;-67
2022/08/06 10:28:52;;;;;;;2.55;0.35;;;22.90;96.60;;;;;;7343617;32;20130;-63
2022/08/06 10:33:03;;;;;;;1.90;0.20;;;22.80;97.60;;;;;;7346875;32;20240;-63
2022/08/06 10:37:11;;;;;;;2.10;0.32;;;22.10;96.20;;;;;;7349606;32;20111;-63
2022/08/06 10:41:35;;;;;;;0.77;0.10;;;21.30;97.70;;;;;;7345900;32;20206;-66
2022/08/06 10:45:56;;;;;;;1.58;0.30;;;21.80;98.20;;;;;;7346454;32;20274;-63
2022/08/06 10:50:00;;;;;;;2.65;0.30;;;22.60;98.70;;;;;;7345784;32;20485;-63
2022/08/06 10:54:23;;;;;;;0.40;0.20;;;22.30;95.40;;;;;;7342329;32;20111;-63
2022/08/06 10:58:34;;;;;;;3.97;0.47;;;22.10;98.30;;;;;;7344926;32;20438;-64
2022/08/06 11:03:00;;;;;;;2.28;0.30;;;22.70;99.90;;;;;;7347768;32;20111;-62
2022/08/06 11:07:31;;;;;;;0.65;0.22;;;23.00;94.80;;;;;;7341599;32;20679;-63
2022/08/06 11:12:14;;;;;;;2.08;0.30;;;21.70;92.60;;;;;;7344602;32;20256;-68
2022/08/06 11:16:25;;;;;;;1.08;0.20;;;20.80;94.30;;;;;;7347334;32;20143;-63
2022/08/06 11:20:32;;;;;;;0.90;0.17;;;21.10;95.70;;;;;;7340521;32;20163;-63
2022/08/06 11:24:48;;;;;;;3.33;0.40;;;20.80;97.10;;;;;;7339119;32;20115;-64
2022/08/06 11:28:53;;;;;;;1.58;0.20;;;20.70;97.20;;;;;;7340482;32;20255;-65
2022/08/06 11:32:55;;;;;;;2.00;0.40;;;20.80;99.80;;;;;;7344095;32;20992;-63
2022/08/06 11:36:59;;;;;;;1.42;0.30;;;21.30;96.70;;;;;;7344128;32;20885;-63
2022/08/06 11:41:43;;;;;;;2.05;0.20;;;21.70;96.20;;;;;;7336702;32;20127;-64
2022/08/06 11:46:19;;;;;;;1.70;0.40;;;21.30;95.10;;;;;;7341338;32;20730;-63
2022/08/06 11:50:39;;;;;;;2.78;0.37;;;21.10;95.50;;;;;;7342123;32;20228;-64
2022/08/06 11:54:44;;;;;;;3.33;0.47;;;21.20;95.00;;;;;;7339747;32;20218;-67
2022/08/06 11:58:48;;;;;;;2.58;0.62;;;20.90;95.00;;;;;;7336156;32;20289;-63
2022/08/06 12:02:54;;;;;;;1.42;0.35;;;20.70;96.80;;;;;;7335608;32;20708;-57
2022/08/06 12:07:24;;;;;;;3.40;0.70;;;20.40;97.90;;;;;;7335641;32;20486;-57
2022/08/06 12:11:35;;;;;;;3.15;0.30;;;20.20;97.30;;;;;;7330036;32;20123;-59
2022/08/06 12:15:40;;;;;;;3.33;0.50;;;20.80;97.90;;;;;;7336509;32;20173;-58
2022/08/06 12:20:02;;;;;;;4.68;1.60;;;21.10;96.70;;;;;;7340651;32;20174;-65
2022/08/06 12:24:05;;;;;;;4.40;2.33;;;21.20;96.30;;;;;;7340521;32;20099;-67
2022/08/06 12:28:24;;;;;;;87.72;62.97;;;21.40;97.30;;;;;;7339024;32;20107;-65
2022/08/06 12:32:30;;;;;;;2.37;0.90;;;21.70;97.20;;;;;;7340458;32;20539;-65
2022/08/06 12:36:34;;;;;;;0.83;0.30;;;21.60;95.70;;;;;;7340825;32;20126;-65
2022/08/06 12:40:37;;;;;;;2.05;0.45;;;21.50;96.90;;;;;;7338626;32;20202;-64
2022/08/06 12:44:40;;;;;;;4.40;0.50;;;21.40;98.00;;;;;;7340423;32;20121;-64
2022/08/06 12:49:02;;;;;;;1.87;0.77;;;21.20;97.20;;;;;;7338357;32;20087;-61
2022/08/06 12:53:06;;;;;;;0.80;0.30;;;21.10;96.90;;;;;;7338648;32;20099;-60
2022/08/06 12:57:25;;;;;;;;;;;21.10;96.70;;;;;;7336103;32;21271;-61
2022/08/06 13:01:47;;;;;;;2.33;0.32;;;21.60;96.90;;;;;;7336255;32;20038;-60
2022/08/06 13:06:10;;;;;;;1.80;0.35;;;22.30;95.20;;;;;;7337441;32;20138;-62
2022/08/06 13:10:32;;;;;;;1.12;0.30;;;22.70;93.80;;;;;;7335111;32;20123;-62
2022/08/06 13:14:57;;;;;;;1.10;0.28;;;22.50;92.60;;;;;;7339014;32;20186;-60
2022/08/06 13:19:20;;;;;;;1.58;0.37;;;22.00;92.70;;;;;;7333049;32;20099;-60
2022/08/06 13:23:37;;;;;;;1.35;0.30;;;22.00;95.10;;;;;;7330936;32;20683;-61
2022/08/06 13:27:39;;;;;;;1.58;0.35;;;22.30;93.60;;;;;;7335149;32;20091;-59
2022/08/06 13:32:04;;;;;;;1.62;0.30;;;22.30;91.60;;;;;;7333073;32;20287;-59
2022/08/06 13:36:27;;;;;;;0.90;0.22;;;22.10;92.80;;;;;;7335886;32;20472;-61
2022/08/06 13:40:43;;;;;;;2.42;0.30;;;22.00;93.50;;;;;;7335889;32;20111;-61
2022/08/06 13:44:52;;;;;;;2.35;0.30;;;21.80;94.20;;;;;;7335646;32;20174;-61
2022/08/06 13:48:57;;;;;;;1.60;0.35;;;21.50;96.00;;;;;;7335052;32;20131;-59
2022/08/06 13:53:03;;;;;;;2.33;0.30;;;22.20;93.90;;;;;;7336907;32;20103;-69
2022/08/06 13:57:08;;;;;;;2.72;0.50;;;22.60;91.70;;;;;;7336673;32;20291;-69
2022/08/06 14:01:13;;;;;;;0.93;0.20;;;22.70;91.10;;;;;;7339241;32;20511;-57
2022/08/06 14:05:16;;;;;;;0.82;0.22;;;22.70;88.00;;;;;;7344451;32;21075;-59
2022/08/06 14:09:27;;;;;;;2.75;0.30;;;22.80;91.40;;;;;;7343488;32;20206;-62
2022/08/06 14:13:41;;;;;;;0.28;0.10;;;22.80;89.40;;;;;;7340567;32;20191;-60
2022/08/06 14:17:44;;;;;;;2.05;0.25;;;22.80;86.30;;;;;;7340616;32;20186;-60
2022/08/06 14:21:46;;;;;;;0.75;0.22;;;22.90;86.90;;;;;;7336722;32;20115;-60
2022/08/06 14:25:49;;;;;;;0.82;0.20;;;23.30;89.60;;;;;;7331555;32;20120;-57
2022/08/06 14:30:04;;;;;;;2.50;0.50;;;23.20;85.60;;;;;;7339026;32;20622;-57
2022/08/06 14:34:27;;;;;;;2.15;0.50;;;23.30;86.60;;;;;;7340641;32;20095;-58
2022/08/06 14:38:40;;;;;;;4.00;0.50;;;23.40;86.50;;;;;;7336505;32;20676;-65
2022/08/06 14:47:03;;;;;;;0.73;0.25;;;23.80;88.90;;;;;;7333019;32;20111;-67
2022/08/06 14:51:11;;;;;;;2.53;0.32;;;23.50;88.60;;;;;;7337737;32;20113;-65
2022/08/06 14:55:14;;;;;;;1.45;0.40;;;22.50;89.30;;;;;;7341327;32;20122;-64
2022/08/06 14:59:25;;;;;;;0.95;0.30;;;22.00;90.20;;;;;;7344011;32;20151;-63
2022/08/06 15:03:32;;;;;;;2.40;0.37;;;21.50;90.40;;;;;;7337426;32;20225;-65
2022/08/06 15:07:34;;;;;;;1.42;0.40;;;21.10;91.30;;;;;;7337445;32;20259;-66
2022/08/06 15:11:42;;;;;;;1.65;0.35;;;21.20;91.50;;;;;;7344446;32;20937;-67
2022/08/06 15:16:01;;;;;;;1.20;0.30;;;21.10;90.70;;;;;;7341675;32;20175;-66
2022/08/06 15:20:04;;;;;;;1.27;0.28;;;21.10;90.90;;;;;;7340184;32;20213;-65
2022/08/06 15:24:09;;;;;;;0.50;0.28;;;20.90;91.40;;;;;;7339978;32;20830;-66
2022/08/06 15:28:13;;;;;;;1.10;0.20;;;20.90;92.50;;;;;;7337352;32;20127;-66
2022/08/06 15:32:18;;;;;;;1.23;0.40;;;20.90;90.30;;;;;;7338500;32;20520;-67
2022/08/06 15:36:20;;;;;;;0.93;0.20;;;21.20;85.00;;;;;;7340990;32;20273;-66
2022/08/06 15:40:21;;;;;;;2.05;0.30;;;21.50;85.00;;;;;;7336534;32;20220;-66
2022/08/06 15:44:30;;;;;;;0.98;0.35;;;21.60;87.70;;;;;;7340547;32;20775;-68
2022/08/06 15:48:52;;;;;;;0.90;0.32;;;22.00;87.20;;;;;;7341121;32;20130;-67
2022/08/06 15:52:56;;;;;;;1.50;0.50;;;22.30;86.60;;;;;;7338334;32;20126;-65
2022/08/06 15:57:07;;;;;;;1.08;0.30;;;22.30;90.20;;;;;;7329447;32;20304;-61
2022/08/06 16:01:29;;;;;;;1.70;0.30;;;22.20;87.30;;;;;;7338981;32;20198;-62
2022/08/06 16:05:50;;;;;;;3.67;0.50;;;22.10;85.90;;;;;;7336100;32;20111;-65
2022/08/06 16:10:13;;;;;;;1.52;0.30;;;22.00;86.40;;;;;;7343885;32;20287;-64
2022/08/06 16:14:33;;;;;;;2.15;0.40;;;21.70;82.30;;;;;;7337259;32;20107;-60
2022/08/06 16:18:55;;;;;;;0.62;0.20;;;21.30;90.30;;;;;;7337365;32;20119;-65
2022/08/06 16:22:56;;;;;;;3.08;0.40;;;21.30;86.80;;;;;;7339853;32;20174;-66
2022/08/06 16:27:03;;;;;;;2.10;0.47;;;21.10;85.60;;;;;;7338312;32;20394;-66
2022/08/06 16:31:05;;;;;;;2.00;0.37;;;21.00;82.20;;;;;;7335244;32;20276;-67
2022/08/06 16:35:18;;;;;;;1.87;0.30;;;21.00;84.30;;;;;;7340967;32;20095;-68
2022/08/06 16:39:22;;;;;;;1.65;0.20;;;21.00;81.30;;;;;;7327676;32;20285;-65
2022/08/06 16:43:37;;;;;;;0.68;0.20;;;20.90;82.70;;;;;;7334342;32;20143;-65
2022/08/06 16:47:46;;;;;;;1.95;0.35;;;20.60;84.50;;;;;;7343781;32;20476;-67
2022/08/06 16:52:08;;;;;;;0.73;0.20;;;20.40;84.80;;;;;;7339621;32;20503;-67
2022/08/06 16:56:30;;;;;;;1.30;0.30;;;20.40;86.20;;;;;;7339578;32;20092;-66
2022/08/06 17:00:34;;;;;;;1.02;0.35;;;20.30;89.90;;;;;;7337836;32;20162;-66
2022/08/06 17:04:55;;;;;;;1.37;0.30;;;20.30;90.50;;;;;;7332424;32;20130;-60
2022/08/06 17:09:03;;;;;;;1.45;0.45;;;20.40;90.40;;;;;;7331833;32;20716;-64
2022/08/06 17:13:19;;;;;;;2.15;0.40;;;20.40;91.50;;;;;;7335350;32;20327;-60
2022/08/06 17:17:40;;;;;;;3.22;0.47;;;20.40;92.00;;;;;;7334617;32;20153;-58
2022/08/06 17:21:49;;;;;;;2.05;0.40;;;20.40;92.60;;;;;;7339064;32;20201;-60
2022/08/06 17:26:00;;;;;;;0.43;0.20;;;20.50;93.60;;;;;;7326778;32;20100;-61
2022/08/06 17:30:08;;;;;;;1.02;0.37;;;20.30;94.00;;;;;;7334021;32;20145;-60
2022/08/06 17:34:10;;;;;;;1.00;0.43;;;20.30;94.10;;;;;;7331700;32;20242;-59
2022/08/06 17:38:16;;;;;;;0.62;0.30;;;20.20;95.40;;;;;;7335551;32;20673;-73
2022/08/06 17:42:18;;;;;;;2.37;0.30;;;20.20;95.40;;;;;;7341657;32;20128;-67
2022/08/06 17:46:20;;;;;;;1.23;0.30;;;20.10;96.20;;;;;;7344720;32;20506;-68
2022/08/06 17:50:28;;;;;;;0.77;0.40;;;20.10;96.20;;;;;;7344339;32;20096;-67
2022/08/06 17:54:45;;;;;;;0.75;0.40;;;20.10;95.80;;;;;;7345692;32;20119;-67
2022/08/06 17:59:02;;;;;;;2.42;0.40;;;20.10;97.80;;;;;;7340526;32;20852;-68
2022/08/06 18:03:18;;;;;;;3.50;0.60;;;20.00;96.60;;;;;;7340271;32;20111;-67
2022/08/06 18:07:40;;;;;;;3.30;1.15;;;19.80;97.70;;;;;;7341863;32;20137;-67
2022/08/06 18:12:02;;;;;;;4.15;1.00;;;19.70;99.90;;;;;;7345327;32;20226;-69
2022/08/06 18:16:09;;;;;;;2.55;0.60;;;19.70;99.90;;;;;;7341856;32;20351;-57
2022/08/06 18:20:11;;;;;;;4.97;3.00;;;19.50;99.90;;;;;;7340073;32;20127;-59
2022/08/06 18:24:23;;;;;;;3.58;1.10;;;19.40;99.10;;;;;;7332792;32;20161;-59
2022/08/06 18:28:27;;;;;;;4.55;1.50;;;19.40;97.20;;;;;;7336002;32;20481;-61
2022/08/06 18:32:49;;;;;;;2.90;0.98;;;19.30;98.50;;;;;;7339198;32;20198;-61
2022/08/06 18:36:51;;;;;;;2.37;0.70;;;19.10;98.80;;;;;;7342973;32;20133;-72
2022/08/06 18:40:54;;;;;;;1.75;0.60;;;19.00;98.40;;;;;;7336092;32;20103;-67
2022/08/06 18:45:03;;;;;;;3.78;2.22;;;18.80;99.60;;;;;;7340741;32;20103;-69
2022/08/06 18:49:05;;;;;;;5.97;1.52;;;18.70;99.90;;;;;;7337955;32;20225;-69
2022/08/06 18:53:10;;;;;;;4.30;0.98;;;18.50;99.90;;;;;;7342155;32;20214;-68
2022/08/06 18:57:14;;;;;;;0.95;0.57;;;18.10;99.90;;;;;;7344753;32;20730;-69
2022/08/06 19:01:29;;;;;;;2.00;0.73;;;17.90;99.90;;;;;;7341075;32;20644;-67
2022/08/06 19:05:35;;;;;;;4.40;0.90;;;17.50;99.90;;;;;;7345069;32;20134;-68
2022/08/06 19:09:48;;;;;;;7.65;0.80;;;17.30;99.90;;;;;;7340021;32;20100;-66
2022/08/06 19:13:52;;;;;;;3.03;0.60;;;17.10;99.90;;;;;;7344114;32;20212;-67
2022/08/06 19:18:13;;;;;;;1.35;0.40;;;16.80;99.90;;;;;;7337658;32;20123;-68
2022/08/06 19:22:19;;;;;;;4.28;0.45;;;16.50;99.90;;;;;;7333388;32;20216;-65
2022/08/06 19:26:24;;;;;;;5.95;0.60;;;16.30;99.90;;;;;;7338372;32;20119;-66
2022/08/06 19:30:26;;;;;;;2.12;0.52;;;16.10;99.90;;;;;;7332371;32;20582;-65
2022/08/06 19:34:46;;;;;;;3.28;0.62;;;15.90;99.90;;;;;;7337103;32;20137;-66
2022/08/06 19:38:48;;;;;;;2.12;0.50;;;15.80;99.90;;;;;;7343099;32;20167;-67
2022/08/06 19:42:51;;;;;;;5.60;0.70;;;15.60;99.90;;;;;;7341034;32;20234;-64
2022/08/06 19:47:12;;;;;;;1.17;0.60;;;15.50;99.90;;;;;;7340572;32;20327;-64
2022/08/06 19:51:23;;;;;;;3.08;1.65;;;15.20;99.90;;;;;;7341881;32;20545;-64
2022/08/06 19:55:44;;;;;;;4.80;0.70;;;15.00;99.90;;;;;;7340534;32;20253;-69
2022/08/06 20:00:07;;;;;;;5.25;0.60;;;14.90;99.90;;;;;;7340974;32;20144;-65
2022/08/06 20:04:29;;;;;;;2.87;0.73;;;14.70;99.90;;;;;;7341980;32;20107;-66
2022/08/06 20:08:31;;;;;;;1.08;0.60;;;14.60;99.90;;;;;;7338283;32;20681;-66
2022/08/06 20:12:36;;;;;;;3.08;0.60;;;14.50;99.90;;;;;;7340897;32;20457;-64
2022/08/06 20:16:39;;;;;;;2.62;0.55;;;14.30;99.90;;;;;;7344354;32;20162;-66
2022/08/06 20:20:41;;;;;;;3.85;0.80;;;14.20;99.90;;;;;;7338914;32;20217;-65
2022/08/06 20:24:43;;;;;;;3.58;0.70;;;14.00;99.90;;;;;;7344358;32;20514;-65
2022/08/06 20:28:45;;;;;;;4.65;0.70;;;13.90;99.90;;;;;;7342562;32;20103;-64
2022/08/06 20:33:07;;;;;;;1.37;0.75;;;13.80;99.90;;;;;;7334250;32;20633;-64
2022/08/06 20:37:10;;;;;;;3.75;0.50;;;13.60;99.90;;;;;;7338491;32;20213;-65
2022/08/06 20:41:14;;;;;;;2.78;0.60;;;13.60;99.90;;;;;;7336395;32;20309;-64
2022/08/06 20:45:35;;;;;;;3.67;0.73;;;13.40;99.90;;;;;;7336411;32;20191;-64
2022/08/06 20:49:57;;;;;;;4.28;0.77;;;13.30;99.90;;;;;;7337113;32;20136;-65
2022/08/06 20:54:06;;;;;;;2.50;0.80;;;13.20;99.90;;;;;;7331068;32;20745;-63
2022/08/06 20:58:19;;;;;;;1.40;0.60;;;13.20;99.90;;;;;;7333405;32;20648;-64
2022/08/06 21:02:24;;;;;;;4.25;0.85;;;13.00;99.90;;;;;;7331639;32;20257;-64
2022/08/06 21:06:34;;;;;;;1.33;0.70;;;13.00;99.90;;;;;;7335448;32;20516;-64
2022/08/06 21:10:36;;;;;;;4.37;0.75;;;12.90;99.90;;;;;;7336367;32;20549;-64
2022/08/06 21:14:40;;;;;;;1.40;0.80;;;12.80;99.90;;;;;;7329552;32;20261;-64
2022/08/06 21:18:43;;;;;;;1.37;0.80;;;12.90;99.90;;;;;;7333937;32;20142;-65
2022/08/06 21:22:58;;;;;;;2.53;1.10;;;12.70;99.90;;;;;;7340034;32;20545;-64
2022/08/06 21:27:00;;;;;;;4.47;1.00;;;12.60;99.90;;;;;;7340579;32;20201;-64
2022/08/06 21:31:22;;;;;;;3.35;1.10;;;12.50;99.90;;;;;;7331063;32;20186;-64
2022/08/06 21:35:25;;;;;;;3.08;1.00;;;12.40;99.90;;;;;;7328120;32;20115;-63
2022/08/06 21:39:32;;;;;;;1.23;0.88;;;12.30;99.90;;;;;;7333943;32;20212;-63
2022/08/06 21:43:55;;;;;;;1.83;1.10;;;12.30;99.90;;;;;;7331271;32;20134;-63
2022/08/06 21:48:07;;;;;;;2.33;0.98;;;12.20;99.90;;;;;;7336657;32;20147;-62
2022/08/06 21:52:09;;;;;;;2.33;1.10;;;12.10;99.90;;;;;;7335277;32;20351;-64
2022/08/06 21:56:11;;;;;;;2.40;0.90;;;12.10;99.90;;;;;;7335691;32;20203;-63